Lantz, David
United StatesManBorn 19892015 – 2026Runner id 797960
Events
29
27 race dates
Best pace
12.743
km/h · 2017
Best finish
7th
of 750 · 2017
Distance raced
3,265
km · splits not double-counted
Pace over time
27 of 29 results · km/h
Pace over time: 27 races from 2015 to 2026, ranging from 5.05 to 12.74 kilometres per hour, where higher is faster. A second, age-graded series is drawn above it; the gap between the two is the age credit.
- Actual pace
- Age-graded pace
2 results are not on this chart. They are counted in every statistic above and listed in full below — backyard ultras carry a lap count instead of a pace, which is the number that means something in that format.
Results
| Date | Event | Distance | Result | Pace km/h | Placing |
|---|---|---|---|---|---|
| 2015-07-18 | Lone Ranger 24 hr Urban UltraUnited States | 24h | 163.380 km | 6.808 | 6/128 |
| 2015-09-12 | KTA Trail ChallengeUnited States | 50km | 5:35:29 h | 8.942 | 7/182 |
| 2016-04-23 | 50km | 5:18:52 h | 9.408 | 12/258 | |
| 2016-05-21 | 100km | 12:41:14 h | 7.882 | 4/91 | |
| 2016-07-23 | 45km | 4:49:47 h | 9.317 | 3/20 | |
| 2016-08-13 | 100mi | 24:05:00 h | 6.682 | 4/66 | |
| 2016-11-19 | 50mi | 6:32:17 h | 12.308 | 10/753 | |
| 2017-03-04 | 40mi | 5:30:16 h | 11.695 | 2/83 | |
| 2017-06-03 | 100km | 11:45:34 h | 8.504 | 1/88 | |
| 2017-07-22 | Montour 24 Endurance Runs - 6hrs runUnited States | 6h | 65.178 km | 10.863 | 1/8 |
| 2017-08-12 | Eastern States 100 MileUnited States | 100mi | 21:58:14 h | 7.325 | 2/121 |
| 2017-11-18 | 50mi | 6:18:53 h | 12.743 | 7/750 | |
| 2018-01-13 | 50km | 4:09:30 h | 12.024 | 1/80 | |
| 2018-05-18 | 100mi | 22:51:59 h | 7.038 | 7/126 | |
| 2018-10-20 | 68h | 134.120 km | 20laps | 36/61 | |
| 2019-04-20 | 50km | 5:07:46 h | 9.748 | 7/267 | |
| 2019-05-18 | 100mi | 28:40:22 h | 5.613 | 30/96 | |
| 2019-08-10 | 100mi | 23:42:50 h | 6.787 | 4/133 | |
| 2021-08-14 | Eastern States 100 MileUnited States | 100mi | 30:13:05 h | 5.326 | 20/83 |
| 2022-07-09 | 50km | 6:18:12 h | 7.932 | 13/120 | |
| 2022-09-10 | 100mi | 25:20:49 h | 6.349 | 19/39 | |
| 2023-08-12 | 100mi | 31:53:28 h | 5.046 | 45/131 | |
| 2024-05-25 | 65h | 87.178 km | 13laps | 31/44 | |
| 2024-09-21 | 100mi | 22:46:25 h | 7.067 | 2/41 | |
| 2025-06-14 | 70.5mi | 19:58:32 h | 5.680 | 89/114 | |
| 2025-08-09 | 100mi | 27:55:00 h | 5.765 | 21/133 | |
| 2025-10-04 | 50km | 5:03:45 h | 9.877 | 3/121 | |
| 2026-02-14 | 100mi | 29:14:00 h | 5.505 | 4/8 | |
| 2026-08-08 | 100mi | 28:18:44 h | 5.684 | 16/122 |